LQSALIPR

Guest
Details From LQSA - Sarajevo
To LIPR - Rimini Mil
Flight Number -
Tags generated
Created
Modified
Stats Distance 255 nm / 471 km
Max Altitude 32,200 ft / 9,815 m
Waypoints 4
Social Downloads 3
Likes 0
Share VATSIM

Download

Looking for another format? Having issues loading an existing format? Contact us
Advertisement - Login to hide

Notes

Basic altitude profile: - Ascent Rate: 2000ft/min - Ascent Speed: 280kts - Cruise Altitude: 31000ft - Cruise Speed: 300kts - Descent Rate: 1800ft/min - Descent Speed: 250kts Options: - Use NATs: yes - Use PACOTS: yes - Use low airways: yes - Use high airways: yes

Route

LQSA SPL UM730 ELGUS LIPR

ID Type Via Altitude Latitude Longitude Leg Dist Tot Dist Heading (true) Name
O LQSA APT - 0 ft / 0 m 43.82460˚ 18.33150˚ - 0 nm - Sarajevo
SPL VOR - 32,200 ft / 9,815 m 43.49658˚ 16.30472˚ 90 nm 90 nm 258° / 257° SPLIT VOR-DME
ELGUS FIX UM730 (AWY-HI) 28,500 ft / 8,687 m 43.54778˚ 14.96667˚ 58 nm 148 nm 273° / 273° -
O LIPR APT - 0 ft / 0 m 44.02029˚ 12.61175˚ 105 nm 254 nm 286° / 285° Rimini Mil

Altitude Profile

Advertisement - Login to hide

Weather


0- 5 10 15 20 25 30 35+ Temperature / ° C

Clouds and Precipitation
Forecast for 2017-12-16 06:00 UTC. Updated 15 minutes ago

Ground ~20,000 ft ~40,000 ft Winds

LQSA

Details ICAO LQSA (SJJ)
Name Sarajevo
Region Bosnia and Herzegovinia
Timezone Europe/Sarajevo (UTC+1.0)
Stats Elevation 1,708 ft / 521 m (AMSL)
Location 43.824597° 18.331500°
Runways 1
Magnetic Variation 4.223° E

METAR

LQSA 160530Z VRB07KT 7000 RA SCT015 OVC035 08/08 Q0998 NOSIG

Decode

TAF

Not found

Departure Runways

ID Width Length Bearing (true) Bearing (mag) Surface Threshold Offset Overrun Length
12 150 ft / 46 m 8,519 ft / 2,597 m 117.41° 113.19° Asphalt 333 ft / 102 m 0 ft / 0 m
30 150 ft / 46 m 8,519 ft / 2,597 m 297.43° 293.21° Asphalt 666 ft / 203 m 0 ft / 0 m

LIPR

Details ICAO LIPR (RMI)
Name Rimini Mil
Region Italy
Timezone Europe/Rome (UTC+1.0)
Stats Elevation 41 ft / 12 m (AMSL)
Location 44.020286° 12.611746°
Runways 1
Magnetic Variation 3.168° E

METAR

LIPR 160515Z 29008KT CAVOK 04/03 Q1002

Decode

TAF

Not found

Destination Runways

ID Width Length Bearing (true) Bearing (mag) Surface Threshold Offset Overrun Length
13 148 ft / 45 m 9,818 ft / 2,992 m 127.79° 124.62° Asphalt 1,030 ft / 314 m 846 ft / 258 m
31 148 ft / 45 m 9,818 ft / 2,992 m 307.81° 304.64° Asphalt 1,006 ft / 307 m 376 ft / 115 m

Approach Navaids

Runway Type Ident Frequency Range Bearing (true) Bearing (mag) Slope Elevation
31 Localiser MIR 109.30 MHz 18 nm / 33 km 307.77° 304.60° - 41 ft / 12 m (AMSL)
31 Glidescope MIR 109.30 MHz 10 nm / 19 km 307.80° 304.63° 3.00° 41 ft / 12 m (AMSL)

Popular Alternatives